sensor_id;sensor_type;location;lat;lon;timestamp;temperature;humidity
62555;DHT22;48610;52.144;8.624;2023-03-01T00:02:23;0.30;99.90
62555;DHT22;48610;52.144;8.624;2023-03-01T00:05:23;0.10;99.90
62555;DHT22;48610;52.144;8.624;2023-03-01T00:08:25;0.30;99.90
62555;DHT22;48610;52.144;8.624;2023-03-01T00:11:32;0.40;99.90
62555;DHT22;48610;52.144;8.624;2023-03-01T00:14:33;0.20;99.90
62555;DHT22;48610;52.144;8.624;2023-03-01T00:17:33;0.00;99.90
62555;DHT22;48610;52.144;8.624;2023-03-01T00:20:35;0.20;99.90
62555;DHT22;48610;52.144;8.624;2023-03-01T00:23:36;0.10;99.90
62555;DHT22;48610;52.144;8.624;2023-03-01T00:26:37;0.30;99.90
62555;DHT22;48610;52.144;8.624;2023-03-01T00:29:38;0.00;99.90
62555;DHT22;48610;52.144;8.624;2023-03-01T00:32:38;0.00;99.90
62555;DHT22;48610;52.144;8.624;2023-03-01T00:35:40;-0.20;99.90
62555;DHT22;48610;52.144;8.624;2023-03-01T00:38:43;0.10;99.90
62555;DHT22;48610;52.144;8.624;2023-03-01T00:41:44;0.30;99.90
62555;DHT22;48610;52.144;8.624;2023-03-01T00:44:44;0.30;99.90
62555;DHT22;48610;52.144;8.624;2023-03-01T00:47:45;0.20;99.90
62555;DHT22;48610;52.144;8.624;2023-03-01T00:50:45;0.00;99.90
62555;DHT22;48610;52.144;8.624;2023-03-01T00:53:47;-0.50;99.90
62555;DHT22;48610;52.144;8.624;2023-03-01T00:56:49;-0.50;99.90
62555;DHT22;48610;52.144;8.624;2023-03-01T00:59:50;-0.20;99.90
62555;DHT22;48610;52.144;8.624;2023-03-01T01:02:52;0.00;99.90
62555;DHT22;48610;52.144;8.624;2023-03-01T01:05:53;0.10;99.90
62555;DHT22;48610;52.144;8.624;2023-03-01T01:08:54;0.00;99.90
62555;DHT22;48610;52.144;8.624;2023-03-01T01:11:55;0.10;99.90
62555;DHT22;48610;52.144;8.624;2023-03-01T01:14:56;-0.50;99.90
62555;DHT22;48610;52.144;8.624;2023-03-01T01:17:56;-0.50;99.90
62555;DHT22;48610;52.144;8.624;2023-03-01T01:20:57;-0.70;99.90
62555;DHT22;48610;52.144;8.624;2023-03-01T01:23:58;-0.60;99.90
62555;DHT22;48610;52.144;8.624;2023-03-01T01:26:58;-0.60;99.90
62555;DHT22;48610;52.144;8.624;2023-03-01T01:29:59;-0.80;99.90
62555;DHT22;48610;52.144;8.624;2023-03-01T01:32:59;-0.90;99.90
62555;DHT22;48610;52.144;8.624;2023-03-01T01:36:00;-0.90;99.90
62555;DHT22;48610;52.144;8.624;2023-03-01T01:39:01;-0.70;99.90
62555;DHT22;48610;52.144;8.624;2023-03-01T01:42:02;-0.70;99.90
62555;DHT22;48610;52.144;8.624;2023-03-01T01:45:26;-1.00;99.90
62555;DHT22;48610;52.144;8.624;2023-03-01T01:48:43;-0.70;99.90
62555;DHT22;48610;52.144;8.624;2023-03-01T01:51:47;-0.70;99.90
62555;DHT22;48610;52.144;8.624;2023-03-01T01:58:00;-0.80;99.90
62555;DHT22;48610;52.144;8.624;2023-03-01T02:01:03;-1.00;99.90
62555;DHT22;48610;52.144;8.624;2023-03-01T02:04:04;-1.30;99.90
62555;DHT22;48610;52.144;8.624;2023-03-01T02:07:15;-1.50;99.90
62555;DHT22;48610;52.144;8.624;2023-03-01T02:10:16;-1.50;99.90
62555;DHT22;48610;52.144;8.624;2023-03-01T02:13:17;-1.40;99.90
62555;DHT22;48610;52.144;8.624;2023-03-01T02:16:18;-1.20;99.90
62555;DHT22;48610;52.144;8.624;2023-03-01T02:19:36;-1.10;99.90
62555;DHT22;48610;52.144;8.624;2023-03-01T02:22:43;-1.30;99.90
62555;DHT22;48610;52.144;8.624;2023-03-01T02:29:06;-1.10;99.90
62555;DHT22;48610;52.144;8.624;2023-03-01T02:32:07;-1.10;99.90
62555;DHT22;48610;52.144;8.624;2023-03-01T02:35:11;-1.20;99.90
62555;DHT22;48610;52.144;8.624;2023-03-01T02:38:12;-1.20;99.90
62555;DHT22;48610;52.144;8.624;2023-03-01T02:41:15;-1.50;99.90
62555;DHT22;48610;52.144;8.624;2023-03-01T02:44:16;-1.40;99.90
62555;DHT22;48610;52.144;8.624;2023-03-01T02:47:17;-1.30;99.90
62555;DHT22;48610;52.144;8.624;2023-03-01T02:53:56;-1.30;99.90
62555;DHT22;48610;52.144;8.624;2023-03-01T02:56:59;-1.30;99.90
62555;DHT22;48610;52.144;8.624;2023-03-01T03:00:03;-1.20;99.90
62555;DHT22;48610;52.144;8.624;2023-03-01T03:03:07;-1.20;99.90
62555;DHT22;48610;52.144;8.624;2023-03-01T03:06:08;-1.20;99.90
62555;DHT22;48610;52.144;8.624;2023-03-01T03:09:09;-1.30;99.90
62555;DHT22;48610;52.144;8.624;2023-03-01T03:12:10;-1.30;99.90
62555;DHT22;48610;52.144;8.624;2023-03-01T03:15:10;-1.40;99.90
62555;DHT22;48610;52.144;8.624;2023-03-01T03:18:15;-1.30;99.90
62555;DHT22;48610;52.144;8.624;2023-03-01T03:21:16;-1.10;99.90
62555;DHT22;48610;52.144;8.624;2023-03-01T03:24:17;-1.60;99.90
62555;DHT22;48610;52.144;8.624;2023-03-01T03:27:18;-1.90;99.90
62555;DHT22;48610;52.144;8.624;2023-03-01T03:30:19;-2.00;99.90
62555;DHT22;48610;52.144;8.624;2023-03-01T03:33:22;-1.80;99.90
62555;DHT22;48610;52.144;8.624;2023-03-01T03:36:23;-1.80;99.90
62555;DHT22;48610;52.144;8.624;2023-03-01T03:39:25;-1.60;99.90
62555;DHT22;48610;52.144;8.624;2023-03-01T03:42:25;-1.70;99.90
62555;DHT22;48610;52.144;8.624;2023-03-01T03:45:26;-1.40;99.90
62555;DHT22;48610;52.144;8.624;2023-03-01T03:48:27;-1.60;99.90
62555;DHT22;48610;52.144;8.624;2023-03-01T03:51:27;-1.60;99.90
62555;DHT22;48610;52.144;8.624;2023-03-01T03:54:28;-1.70;99.90
62555;DHT22;48610;52.144;8.624;2023-03-01T03:57:28;-1.90;99.90
62555;DHT22;48610;52.144;8.624;2023-03-01T04:00:29;-1.80;99.90
62555;DHT22;48610;52.144;8.624;2023-03-01T04:03:30;-1.70;99.90
62555;DHT22;48610;52.144;8.624;2023-03-01T04:06:32;-2.00;99.90
62555;DHT22;48610;52.144;8.624;2023-03-01T04:09:33;-1.80;99.90
62555;DHT22;48610;52.144;8.624;2023-03-01T04:12:34;-1.80;99.90
62555;DHT22;48610;52.144;8.624;2023-03-01T04:15:35;-1.80;99.90
62555;DHT22;48610;52.144;8.624;2023-03-01T04:18:35;-1.80;99.90
62555;DHT22;48610;52.144;8.624;2023-03-01T04:21:36;-1.70;99.90
62555;DHT22;48610;52.144;8.624;2023-03-01T04:24:37;-1.60;99.90
62555;DHT22;48610;52.144;8.624;2023-03-01T04:27:37;-1.60;99.90
62555;DHT22;48610;52.144;8.624;2023-03-01T04:30:38;-1.80;99.90
62555;DHT22;48610;52.144;8.624;2023-03-01T04:33:50;-1.90;99.90
62555;DHT22;48610;52.144;8.624;2023-03-01T04:36:54;-2.00;99.90
62555;DHT22;48610;52.144;8.624;2023-03-01T04:39:54;-1.70;99.90
62555;DHT22;48610;52.144;8.624;2023-03-01T04:42:55;-2.00;99.90
62555;DHT22;48610;52.144;8.624;2023-03-01T04:46:03;-2.00;99.90
62555;DHT22;48610;52.144;8.624;2023-03-01T04:49:04;-1.90;99.90
62555;DHT22;48610;52.144;8.624;2023-03-01T04:52:05;-1.90;99.90
62555;DHT22;48610;52.144;8.624;2023-03-01T04:55:06;-2.00;99.90
62555;DHT22;48610;52.144;8.624;2023-03-01T04:58:07;-2.40;99.90
62555;DHT22;48610;52.144;8.624;2023-03-01T05:01:12;-2.40;99.90
62555;DHT22;48610;52.144;8.624;2023-03-01T05:04:16;-2.30;99.90
62555;DHT22;48610;52.144;8.624;2023-03-01T05:07:16;-2.20;99.90
62555;DHT22;48610;52.144;8.624;2023-03-01T05:10:21;-1.90;99.90
62555;DHT22;48610;52.144;8.624;2023-03-01T05:13:22;-2.10;99.90
62555;DHT22;48610;52.144;8.624;2023-03-01T05:16:23;-2.30;99.90
62555;DHT22;48610;52.144;8.624;2023-03-01T05:19:23;-2.20;99.90
62555;DHT22;48610;52.144;8.624;2023-03-01T05:22:24;-2.40;99.90
62555;DHT22;48610;52.144;8.624;2023-03-01T05:25:25;-2.40;99.90
62555;DHT22;48610;52.144;8.624;2023-03-01T05:28:26;-2.50;99.90
62555;DHT22;48610;52.144;8.624;2023-03-01T05:31:28;-2.60;99.90
62555;DHT22;48610;52.144;8.624;2023-03-01T05:34:35;-2.40;99.90
62555;DHT22;48610;52.144;8.624;2023-03-01T05:37:36;-2.00;99.90
62555;DHT22;48610;52.144;8.624;2023-03-01T05:40:37;-1.90;99.90
62555;DHT22;48610;52.144;8.624;2023-03-01T05:43:38;-2.00;99.90
62555;DHT22;48610;52.144;8.624;2023-03-01T05:46:42;-2.10;99.90
62555;DHT22;48610;52.144;8.624;2023-03-01T05:49:43;-2.10;99.90
62555;DHT22;48610;52.144;8.624;2023-03-01T05:52:49;-2.00;99.90
62555;DHT22;48610;52.144;8.624;2023-03-01T05:55:50;-2.10;99.90
62555;DHT22;48610;52.144;8.624;2023-03-01T05:58:51;-2.10;99.90
62555;DHT22;48610;52.144;8.624;2023-03-01T06:01:52;-2.20;99.90
62555;DHT22;48610;52.144;8.624;2023-03-01T06:04:52;-2.10;99.90
62555;DHT22;48610;52.144;8.624;2023-03-01T06:07:53;-2.00;99.90
62555;DHT22;48610;52.144;8.624;2023-03-01T06:10:54;-2.10;99.90
62555;DHT22;48610;52.144;8.624;2023-03-01T06:13:55;-2.10;99.90
62555;DHT22;48610;52.144;8.624;2023-03-01T06:16:55;-1.90;99.90
62555;DHT22;48610;52.144;8.624;2023-03-01T06:19:56;-1.90;99.90
62555;DHT22;48610;52.144;8.624;2023-03-01T06:22:56;-2.00;99.90
62555;DHT22;48610;52.144;8.624;2023-03-01T06:25:57;-2.40;99.90
62555;DHT22;48610;52.144;8.624;2023-03-01T06:28:58;-2.30;99.90
62555;DHT22;48610;52.144;8.624;2023-03-01T06:31:58;-2.30;99.90
62555;DHT22;48610;52.144;8.624;2023-03-01T06:34:59;-2.50;99.90
62555;DHT22;48610;52.144;8.624;2023-03-01T06:38:03;-2.20;99.90
62555;DHT22;48610;52.144;8.624;2023-03-01T06:41:04;-2.10;99.90
62555;DHT22;48610;52.144;8.624;2023-03-01T06:44:04;-2.20;99.90
62555;DHT22;48610;52.144;8.624;2023-03-01T06:47:05;-2.30;99.90
62555;DHT22;48610;52.144;8.624;2023-03-01T06:50:06;-2.10;99.90
62555;DHT22;48610;52.144;8.624;2023-03-01T06:53:06;-2.10;99.90
62555;DHT22;48610;52.144;8.624;2023-03-01T06:56:07;-2.10;99.90
62555;DHT22;48610;52.144;8.624;2023-03-01T06:59:08;-2.00;99.90
62555;DHT22;48610;52.144;8.624;2023-03-01T07:02:12;-1.80;99.90
62555;DHT22;48610;52.144;8.624;2023-03-01T07:05:13;-1.70;99.90
62555;DHT22;48610;52.144;8.624;2023-03-01T07:08:14;-1.50;99.90
62555;DHT22;48610;52.144;8.624;2023-03-01T07:11:14;-1.50;99.90
62555;DHT22;48610;52.144;8.624;2023-03-01T07:14:15;-1.30;99.90
62555;DHT22;48610;52.144;8.624;2023-03-01T07:17:16;-1.30;99.90
62555;DHT22;48610;52.144;8.624;2023-03-01T07:20:18;-1.40;99.90
62555;DHT22;48610;52.144;8.624;2023-03-01T07:23:19;-1.80;99.90
62555;DHT22;48610;52.144;8.624;2023-03-01T07:26:19;-1.70;99.90
62555;DHT22;48610;52.144;8.624;2023-03-01T07:29:20;-1.60;99.90
62555;DHT22;48610;52.144;8.624;2023-03-01T07:32:21;-1.50;99.90
62555;DHT22;48610;52.144;8.624;2023-03-01T07:35:23;-1.30;99.90
62555;DHT22;48610;52.144;8.624;2023-03-01T07:38:23;-1.10;99.90
62555;DHT22;48610;52.144;8.624;2023-03-01T07:41:24;-0.90;99.90
62555;DHT22;48610;52.144;8.624;2023-03-01T07:44:25;-0.50;99.90
62555;DHT22;48610;52.144;8.624;2023-03-01T07:47:26;0.30;99.90
62555;DHT22;48610;52.144;8.624;2023-03-01T07:50:26;1.00;99.90
62555;DHT22;48610;52.144;8.624;2023-03-01T07:53:27;1.70;99.90
62555;DHT22;48610;52.144;8.624;2023-03-01T07:56:27;2.40;99.90
62555;DHT22;48610;52.144;8.624;2023-03-01T07:59:28;2.30;99.90
62555;DHT22;48610;52.144;8.624;2023-03-01T08:02:30;2.50;99.90
62555;DHT22;48610;52.144;8.624;2023-03-01T08:05:31;2.90;99.90
62555;DHT22;48610;52.144;8.624;2023-03-01T08:08:32;3.00;99.90
62555;DHT22;48610;52.144;8.624;2023-03-01T08:11:33;3.20;99.90
62555;DHT22;48610;52.144;8.624;2023-03-01T08:14:33;3.20;99.90
62555;DHT22;48610;52.144;8.624;2023-03-01T08:17:34;2.80;99.90
62555;DHT22;48610;52.144;8.624;2023-03-01T08:20:34;2.70;99.90
62555;DHT22;48610;52.144;8.624;2023-03-01T08:23:35;2.40;99.90
62555;DHT22;48610;52.144;8.624;2023-03-01T08:26:36;2.20;99.90
62555;DHT22;48610;52.144;8.624;2023-03-01T08:29:37;2.30;99.90
62555;DHT22;48610;52.144;8.624;2023-03-01T08:32:39;2.80;99.90
62555;DHT22;48610;52.144;8.624;2023-03-01T08:35:39;3.10;99.90
62555;DHT22;48610;52.144;8.624;2023-03-01T08:38:40;3.30;99.90
62555;DHT22;48610;52.144;8.624;2023-03-01T08:41:42;3.70;99.90
62555;DHT22;48610;52.144;8.624;2023-03-01T08:44:42;3.70;99.90
62555;DHT22;48610;52.144;8.624;2023-03-01T08:47:43;3.80;99.90
62555;DHT22;48610;52.144;8.624;2023-03-01T08:50:44;4.00;99.90
62555;DHT22;48610;52.144;8.624;2023-03-01T08:53:45;4.20;99.90
62555;DHT22;48610;52.144;8.624;2023-03-01T08:56:47;4.20;99.90
62555;DHT22;48610;52.144;8.624;2023-03-01T08:59:47;4.40;99.90
62555;DHT22;48610;52.144;8.624;2023-03-01T09:02:48;4.40;99.90
62555;DHT22;48610;52.144;8.624;2023-03-01T09:05:48;4.60;99.90
62555;DHT22;48610;52.144;8.624;2023-03-01T09:08:50;4.80;99.90
62555;DHT22;48610;52.144;8.624;2023-03-01T09:11:51;5.20;99.90
62555;DHT22;48610;52.144;8.624;2023-03-01T09:14:52;5.10;99.90
62555;DHT22;48610;52.144;8.624;2023-03-01T09:17:52;5.40;99.90
62555;DHT22;48610;52.144;8.624;2023-03-01T09:20:53;5.60;99.90
62555;DHT22;48610;52.144;8.624;2023-03-01T09:23:56;6.00;99.90
62555;DHT22;48610;52.144;8.624;2023-03-01T09:26:57;6.00;99.90
62555;DHT22;48610;52.144;8.624;2023-03-01T09:29:57;5.90;99.90
62555;DHT22;48610;52.144;8.624;2023-03-01T09:32:58;5.80;99.90
62555;DHT22;48610;52.144;8.624;2023-03-01T09:36:03;6.00;99.80
62555;DHT22;48610;52.144;8.624;2023-03-01T09:39:05;6.30;99.90
62555;DHT22;48610;52.144;8.624;2023-03-01T09:42:12;6.50;99.40
62555;DHT22;48610;52.144;8.624;2023-03-01T09:45:23;6.60;98.90
62555;DHT22;48610;52.144;8.624;2023-03-01T09:48:27;6.40;98.70
62555;DHT22;48610;52.144;8.624;2023-03-01T09:51:32;6.40;98.50
62555;DHT22;48610;52.144;8.624;2023-03-01T09:54:33;6.70;96.40
62555;DHT22;48610;52.144;8.624;2023-03-01T09:57:52;6.90;96.40
62555;DHT22;48610;52.144;8.624;2023-03-01T10:00:54;7.20;96.80
62555;DHT22;48610;52.144;8.624;2023-03-01T10:07:55;7.20;93.20
62555;DHT22;48610;52.144;8.624;2023-03-01T10:10:58;7.70;93.20
62555;DHT22;48610;52.144;8.624;2023-03-01T10:20:48;8.60;92.30
62555;DHT22;48610;52.144;8.624;2023-03-01T10:23:50;8.50;90.50
62555;DHT22;48610;52.144;8.624;2023-03-01T10:27:01;8.20;92.00
62555;DHT22;48610;52.144;8.624;2023-03-01T10:33:35;8.20;92.00
62555;DHT22;48610;52.144;8.624;2023-03-01T10:36:38;8.30;90.70
62555;DHT22;48610;52.144;8.624;2023-03-01T10:40:05;8.60;90.80
62555;DHT22;48610;52.144;8.624;2023-03-01T10:43:11;8.40;85.80
62555;DHT22;48610;52.144;8.624;2023-03-01T10:46:31;8.20;90.70
62555;DHT22;48610;52.144;8.624;2023-03-01T10:49:32;8.60;86.50
62555;DHT22;48610;52.144;8.624;2023-03-01T10:52:37;8.90;90.50
62555;DHT22;48610;52.144;8.624;2023-03-01T10:55:40;8.80;89.90
62555;DHT22;48610;52.144;8.624;2023-03-01T11:02:29;9.80;90.70
62555;DHT22;48610;52.144;8.624;2023-03-01T11:12:19;8.00;89.40
62555;DHT22;48610;52.144;8.624;2023-03-01T11:15:24;9.20;89.20
62555;DHT22;48610;52.144;8.624;2023-03-01T11:18:26;9.60;89.70
62555;DHT22;48610;52.144;8.624;2023-03-01T11:21:29;9.80;79.30
62555;DHT22;48610;52.144;8.624;2023-03-01T11:24:41;9.90;83.20
62555;DHT22;48610;52.144;8.624;2023-03-01T11:27:45;9.80;84.60
62555;DHT22;48610;52.144;8.624;2023-03-01T11:30:55;9.50;83.00
62555;DHT22;48610;52.144;8.624;2023-03-01T11:34:05;9.80;84.80
62555;DHT22;48610;52.144;8.624;2023-03-01T11:37:15;10.00;83.60
62555;DHT22;48610;52.144;8.624;2023-03-01T11:40:27;10.30;82.80
62555;DHT22;48610;52.144;8.624;2023-03-01T11:43:47;10.30;76.50
62555;DHT22;48610;52.144;8.624;2023-03-01T11:50:14;9.90;79.70
62555;DHT22;48610;52.144;8.624;2023-03-01T11:53:34;9.20;81.80
62555;DHT22;48610;52.144;8.624;2023-03-01T11:56:47;9.50;83.70
62555;DHT22;48610;52.144;8.624;2023-03-01T12:13:27;10.20;83.60
62555;DHT22;48610;52.144;8.624;2023-03-01T12:33:50;9.40;84.70
62555;DHT22;48610;52.144;8.624;2023-03-01T12:37:11;10.10;83.60
62555;DHT22;48610;52.144;8.624;2023-03-01T12:40:25;10.30;81.80
62555;DHT22;48610;52.144;8.624;2023-03-01T12:43:57;10.50;79.20
62555;DHT22;48610;52.144;8.624;2023-03-01T12:50:44;10.90;78.60
62555;DHT22;48610;52.144;8.624;2023-03-01T12:53:48;10.40;78.90
62555;DHT22;48610;52.144;8.624;2023-03-01T12:56:49;10.60;75.70
62555;DHT22;48610;52.144;8.624;2023-03-01T13:03:48;10.00;77.70
62555;DHT22;48610;52.144;8.624;2023-03-01T13:13:21;10.40;79.10
62555;DHT22;48610;52.144;8.624;2023-03-01T13:19:29;9.60;79.90
62555;DHT22;48610;52.144;8.624;2023-03-01T13:22:33;9.60;80.60
62555;DHT22;48610;52.144;8.624;2023-03-01T13:29:02;10.20;81.80
62555;DHT22;48610;52.144;8.624;2023-03-01T13:32:03;10.30;75.80
62555;DHT22;48610;52.144;8.624;2023-03-01T13:41:56;10.00;75.40
62555;DHT22;48610;52.144;8.624;2023-03-01T13:44:58;9.80;80.60
62555;DHT22;48610;52.144;8.624;2023-03-01T13:48:02;10.10;77.70
62555;DHT22;48610;52.144;8.624;2023-03-01T13:51:08;10.10;78.30
62555;DHT22;48610;52.144;8.624;2023-03-01T13:54:11;10.20;77.60
62555;DHT22;48610;52.144;8.624;2023-03-01T13:57:20;9.80;76.20
62555;DHT22;48610;52.144;8.624;2023-03-01T14:03:29;9.40;81.90
62555;DHT22;48610;52.144;8.624;2023-03-01T14:06:32;9.80;78.30
62555;DHT22;48610;52.144;8.624;2023-03-01T14:09:43;9.90;79.70
62555;DHT22;48610;52.144;8.624;2023-03-01T14:19:40;9.70;79.60
62555;DHT22;48610;52.144;8.624;2023-03-01T14:22:46;9.80;79.70
62555;DHT22;48610;52.144;8.624;2023-03-01T14:25:55;9.70;77.70
62555;DHT22;48610;52.144;8.624;2023-03-01T14:28:56;9.60;76.20
62555;DHT22;48610;52.144;8.624;2023-03-01T14:32:12;9.50;80.30
62555;DHT22;48610;52.144;8.624;2023-03-01T14:35:31;9.60;78.90
62555;DHT22;48610;52.144;8.624;2023-03-01T14:38:39;9.60;76.90
62555;DHT22;48610;52.144;8.624;2023-03-01T14:41:40;9.70;74.70
62555;DHT22;48610;52.144;8.624;2023-03-01T14:44:47;9.60;77.70
62555;DHT22;48610;52.144;8.624;2023-03-01T14:47:48;9.60;74.70
62555;DHT22;48610;52.144;8.624;2023-03-01T14:50:49;9.30;76.00
62555;DHT22;48610;52.144;8.624;2023-03-01T14:53:51;9.30;77.10
62555;DHT22;48610;52.144;8.624;2023-03-01T14:56:54;9.20;76.80
62555;DHT22;48610;52.144;8.624;2023-03-01T15:00:00;9.50;76.00
62555;DHT22;48610;52.144;8.624;2023-03-01T15:03:13;9.50;74.10
62555;DHT22;48610;52.144;8.624;2023-03-01T15:06:19;9.20;75.30
62555;DHT22;48610;52.144;8.624;2023-03-01T15:09:21;9.10;76.40
62555;DHT22;48610;52.144;8.624;2023-03-01T15:18:30;8.80;78.00
62555;DHT22;48610;52.144;8.624;2023-03-01T15:21:35;8.80;78.10
62555;DHT22;48610;52.144;8.624;2023-03-01T15:24:36;8.80;77.40
62555;DHT22;48610;52.144;8.624;2023-03-01T15:27:37;8.60;79.60
62555;DHT22;48610;52.144;8.624;2023-03-01T15:30:42;8.60;79.10
62555;DHT22;48610;52.144;8.624;2023-03-01T15:33:43;8.80;77.30
62555;DHT22;48610;52.144;8.624;2023-03-01T15:36:47;8.60;79.20
62555;DHT22;48610;52.144;8.624;2023-03-01T15:39:56;8.30;80.20
62555;DHT22;48610;52.144;8.624;2023-03-01T15:43:02;8.30;81.10
62555;DHT22;48610;52.144;8.624;2023-03-01T15:46:03;8.20;79.90
62555;DHT22;48610;52.144;8.624;2023-03-01T15:52:28;8.30;79.80
62555;DHT22;48610;52.144;8.624;2023-03-01T15:55:32;8.00;78.10
62555;DHT22;48610;52.144;8.624;2023-03-01T15:58:33;8.20;79.10
62555;DHT22;48610;52.144;8.624;2023-03-01T16:01:34;8.00;79.20
62555;DHT22;48610;52.144;8.624;2023-03-01T16:04:35;8.00;80.10
62555;DHT22;48610;52.144;8.624;2023-03-01T16:07:35;8.00;79.60
62555;DHT22;48610;52.144;8.624;2023-03-01T16:10:41;8.00;80.80
62555;DHT22;48610;52.144;8.624;2023-03-01T16:13:44;8.00;81.80
62555;DHT22;48610;52.144;8.624;2023-03-01T16:16:46;8.00;79.40
62555;DHT22;48610;52.144;8.624;2023-03-01T16:19:48;7.80;82.60
62555;DHT22;48610;52.144;8.624;2023-03-01T16:22:49;7.70;80.10
62555;DHT22;48610;52.144;8.624;2023-03-01T16:25:49;7.70;81.80
62555;DHT22;48610;52.144;8.624;2023-03-01T16:28:50;7.60;82.80
62555;DHT22;48610;52.144;8.624;2023-03-01T16:31:50;7.50;82.50
62555;DHT22;48610;52.144;8.624;2023-03-01T16:34:51;7.50;84.00
62555;DHT22;48610;52.144;8.624;2023-03-01T16:37:51;7.60;82.90
62555;DHT22;48610;52.144;8.624;2023-03-01T16:40:54;7.60;83.40
62555;DHT22;48610;52.144;8.624;2023-03-01T16:43:55;7.60;83.20
62555;DHT22;48610;52.144;8.624;2023-03-01T16:46:55;7.60;83.40
62555;DHT22;48610;52.144;8.624;2023-03-01T16:49:56;7.50;83.90
62555;DHT22;48610;52.144;8.624;2023-03-01T16:52:56;7.30;85.10
62555;DHT22;48610;52.144;8.624;2023-03-01T16:55:58;7.20;85.80
62555;DHT22;48610;52.144;8.624;2023-03-01T16:59:06;7.10;85.10
62555;DHT22;48610;52.144;8.624;2023-03-01T17:02:11;7.10;86.10
62555;DHT22;48610;52.144;8.624;2023-03-01T17:05:12;7.10;86.40
62555;DHT22;48610;52.144;8.624;2023-03-01T17:08:19;7.00;85.40
62555;DHT22;48610;52.144;8.624;2023-03-01T17:11:20;6.90;87.30
62555;DHT22;48610;52.144;8.624;2023-03-01T17:14:29;7.00;86.80
62555;DHT22;48610;52.144;8.624;2023-03-01T17:17:30;7.00;87.50
62555;DHT22;48610;52.144;8.624;2023-03-01T17:20:33;7.00;87.60
62555;DHT22;48610;52.144;8.624;2023-03-01T17:23:48;7.00;88.10
62555;DHT22;48610;52.144;8.624;2023-03-01T17:26:57;7.10;87.20
62555;DHT22;48610;52.144;8.624;2023-03-01T17:29:57;7.10;87.60
62555;DHT22;48610;52.144;8.624;2023-03-01T17:32:58;7.00;87.50
62555;DHT22;48610;52.144;8.624;2023-03-01T17:35:59;7.00;87.40
62555;DHT22;48610;52.144;8.624;2023-03-01T17:39:25;6.90;87.90
62555;DHT22;48610;52.144;8.624;2023-03-01T17:42:51;7.00;87.30
62555;DHT22;48610;52.144;8.624;2023-03-01T17:45:51;6.90;87.90
62555;DHT22;48610;52.144;8.624;2023-03-01T17:48:53;6.80;88.00
62555;DHT22;48610;52.144;8.624;2023-03-01T17:51:54;6.60;88.20
62555;DHT22;48610;52.144;8.624;2023-03-01T17:54:55;6.60;89.30
62555;DHT22;48610;52.144;8.624;2023-03-01T17:57:55;6.40;89.60
62555;DHT22;48610;52.144;8.624;2023-03-01T18:01:06;6.50;89.60
62555;DHT22;48610;52.144;8.624;2023-03-01T18:04:07;6.60;89.50
62555;DHT22;48610;52.144;8.624;2023-03-01T18:07:07;6.60;89.70
62555;DHT22;48610;52.144;8.624;2023-03-01T18:10:08;6.60;88.90
62555;DHT22;48610;52.144;8.624;2023-03-01T18:13:34;6.50;90.20
62555;DHT22;48610;52.144;8.624;2023-03-01T18:16:57;6.30;90.50
62555;DHT22;48610;52.144;8.624;2023-03-01T18:19:57;6.10;91.10
62555;DHT22;48610;52.144;8.624;2023-03-01T18:22:58;5.90;91.50
62555;DHT22;48610;52.144;8.624;2023-03-01T18:26:02;5.90;91.70
62555;DHT22;48610;52.144;8.624;2023-03-01T18:29:03;6.00;91.70
62555;DHT22;48610;52.144;8.624;2023-03-01T18:32:04;6.10;91.30
62555;DHT22;48610;52.144;8.624;2023-03-01T18:35:06;5.90;91.60
62555;DHT22;48610;52.144;8.624;2023-03-01T18:38:07;6.00;91.40
62555;DHT22;48610;52.144;8.624;2023-03-01T18:41:07;5.80;91.90
62555;DHT22;48610;52.144;8.624;2023-03-01T18:44:09;5.70;92.70
62555;DHT22;48610;52.144;8.624;2023-03-01T18:47:10;5.70;92.50
62555;DHT22;48610;52.144;8.624;2023-03-01T18:50:10;5.50;92.90
62555;DHT22;48610;52.144;8.624;2023-03-01T18:53:11;5.50;93.30
62555;DHT22;48610;52.144;8.624;2023-03-01T18:56:12;5.30;93.10
62555;DHT22;48610;52.144;8.624;2023-03-01T18:59:13;5.30;93.50
62555;DHT22;48610;52.144;8.624;2023-03-01T19:02:13;5.40;93.60
62555;DHT22;48610;52.144;8.624;2023-03-01T19:05:14;5.40;93.10
62555;DHT22;48610;52.144;8.624;2023-03-01T19:08:30;5.40;93.20
62555;DHT22;48610;52.144;8.624;2023-03-01T19:11:33;5.50;92.70
62555;DHT22;48610;52.144;8.624;2023-03-01T19:14:34;5.50;92.60
62555;DHT22;48610;52.144;8.624;2023-03-01T19:17:35;5.60;92.10
62555;DHT22;48610;52.144;8.624;2023-03-01T19:20:35;5.80;91.70
62555;DHT22;48610;52.144;8.624;2023-03-01T19:23:37;5.70;91.80
62555;DHT22;48610;52.144;8.624;2023-03-01T19:26:40;5.70;91.80
62555;DHT22;48610;52.144;8.624;2023-03-01T19:29:43;5.80;91.20
62555;DHT22;48610;52.144;8.624;2023-03-01T19:32:43;5.80;91.10
62555;DHT22;48610;52.144;8.624;2023-03-01T19:35:44;5.60;90.80
62555;DHT22;48610;52.144;8.624;2023-03-01T19:38:44;5.60;91.50
62555;DHT22;48610;52.144;8.624;2023-03-01T19:41:45;5.60;91.30
62555;DHT22;48610;52.144;8.624;2023-03-01T19:44:46;5.60;91.40
62555;DHT22;48610;52.144;8.624;2023-03-01T19:47:46;5.50;91.10
62555;DHT22;48610;52.144;8.624;2023-03-01T19:50:49;5.60;91.30
62555;DHT22;48610;52.144;8.624;2023-03-01T19:53:51;5.40;92.00
62555;DHT22;48610;52.144;8.624;2023-03-01T19:56:51;5.40;92.20
62555;DHT22;48610;52.144;8.624;2023-03-01T19:59:52;5.30;91.70
62555;DHT22;48610;52.144;8.624;2023-03-01T20:02:52;5.40;92.00
62555;DHT22;48610;52.144;8.624;2023-03-01T20:05:53;5.50;91.30
62555;DHT22;48610;52.144;8.624;2023-03-01T20:08:55;5.60;91.20
62555;DHT22;48610;52.144;8.624;2023-03-01T20:11:56;5.50;91.20
62555;DHT22;48610;52.144;8.624;2023-03-01T20:14:57;5.50;91.10
62555;DHT22;48610;52.144;8.624;2023-03-01T20:17:58;5.50;90.30
62555;DHT22;48610;52.144;8.624;2023-03-01T20:20:58;5.60;91.10
62555;DHT22;48610;52.144;8.624;2023-03-01T20:23:59;5.50;91.00
62555;DHT22;48610;52.144;8.624;2023-03-01T20:27:00;5.40;91.00
62555;DHT22;48610;52.144;8.624;2023-03-01T20:30:00;5.40;90.90
62555;DHT22;48610;52.144;8.624;2023-03-01T20:33:01;5.30;91.60
62555;DHT22;48610;52.144;8.624;2023-03-01T20:36:03;5.10;92.30
62555;DHT22;48610;52.144;8.624;2023-03-01T20:39:04;5.10;92.30
62555;DHT22;48610;52.144;8.624;2023-03-01T20:42:05;5.00;92.60
62555;DHT22;48610;52.144;8.624;2023-03-01T20:45:07;4.90;93.00
62555;DHT22;48610;52.144;8.624;2023-03-01T20:48:07;4.80;93.30
62555;DHT22;48610;52.144;8.624;2023-03-01T20:51:08;4.70;93.30
62555;DHT22;48610;52.144;8.624;2023-03-01T20:54:09;4.70;93.70
62555;DHT22;48610;52.144;8.624;2023-03-01T20:57:10;4.60;93.90
62555;DHT22;48610;52.144;8.624;2023-03-01T21:00:11;4.50;94.30
62555;DHT22;48610;52.144;8.624;2023-03-01T21:03:11;4.50;94.40
62555;DHT22;48610;52.144;8.624;2023-03-01T21:06:12;4.50;94.40
62555;DHT22;48610;52.144;8.624;2023-03-01T21:09:13;4.70;93.90
62555;DHT22;48610;52.144;8.624;2023-03-01T21:12:13;4.60;94.10
62555;DHT22;48610;52.144;8.624;2023-03-01T21:15:14;4.40;94.50
62555;DHT22;48610;52.144;8.624;2023-03-01T21:18:15;4.40;94.60
62555;DHT22;48610;52.144;8.624;2023-03-01T21:21:17;4.50;94.30
62555;DHT22;48610;52.144;8.624;2023-03-01T21:24:18;4.60;94.00